Time;durP1;ratioP1;P1;durP2;ratioP2;P2;SDS_P1;SDS_P2;PMS_P1;PMS_P2;Temp;Humidity;BMP_temperature;BMP_pressure;BME280_temperature;BME280_humidity;BME280_pressure;Samples;Min_cycle;Max_cycle;Signal;HPM_P1;HPM_P2
2021/06/28 00:01:13;;;;;;;2.80;2.67;;;43.30;29.90;;;;;;5064134;28;20564;-26
2021/06/28 00:03:45;;;;;;;3.00;2.90;;;43.10;31.10;;;;;;5065876;28;20456;-26
2021/06/28 00:06:18;;;;;;;2.73;2.60;;;43.20;29.50;;;;;;5064671;28;20463;-29
2021/06/28 00:08:49;;;;;;;2.90;2.57;;;43.20;29.40;;;;;;5065502;28;20479;-30
2021/06/28 00:11:20;;;;;;;2.97;2.77;;;43.10;28.50;;;;;;5064763;28;20440;-32
2021/06/28 00:13:53;;;;;;;2.80;2.70;;;43.10;28.90;;;;;;5065538;28;20528;-25
2021/06/28 00:16:25;;;;;;;4.00;2.77;;;43.00;28.70;;;;;;5064623;28;20448;-27
2021/06/28 00:18:57;;;;;;;2.97;2.77;;;43.00;28.60;;;;;;5065231;28;20474;-27
2021/06/28 00:21:30;;;;;;;2.80;2.70;;;42.90;29.20;;;;;;5064657;28;20455;-25
2021/06/28 00:24:03;;;;;;;3.20;3.10;;;42.80;29.40;;;;;;5056091;28;20507;-25
2021/06/28 00:26:34;;;;;;;3.60;3.40;;;42.80;29.40;;;;;;5065048;28;20463;-28
2021/06/28 00:29:05;;;;;;;2.80;2.70;;;42.60;30.20;;;;;;5064884;28;20437;-27
2021/06/28 00:31:38;;;;;;;2.80;2.70;;;42.60;28.70;;;;;;5063240;28;20459;-31
2021/06/28 00:34:09;;;;;;;3.03;2.93;;;42.60;30.50;;;;;;5063413;28;20851;-27
2021/06/28 00:36:42;;;;;;;3.43;2.50;;;42.50;31.00;;;;;;5062902;28;20449;-25
2021/06/28 00:39:13;;;;;;;2.37;2.27;;;42.40;29.10;;;;;;5060810;28;20459;-27
2021/06/28 00:41:44;;;;;;;2.77;2.57;;;42.40;30.20;;;;;;5064258;28;20476;-31
2021/06/28 00:44:15;;;;;;;2.70;2.60;;;42.30;31.20;;;;;;5064497;28;20546;-27
2021/06/28 00:46:46;;;;;;;2.77;2.67;;;42.10;31.50;;;;;;5065949;28;20509;-24
2021/06/28 00:49:18;;;;;;;2.60;2.40;;;42.20;31.60;;;;;;5064218;28;21062;-25
2021/06/28 00:51:51;;;;;;;2.60;2.50;;;42.20;29.80;;;;;;5064246;28;20449;-25
2021/06/28 00:54:22;;;;;;;2.87;2.60;;;42.20;29.70;;;;;;5063087;28;20472;-27
2021/06/28 00:56:53;;;;;;;2.40;2.30;;;42.10;29.70;;;;;;5060169;28;20531;-24
2021/06/28 00:59:25;;;;;;;2.23;2.13;;;42.10;29.20;;;;;;5063815;28;20851;-26
2021/06/28 01:01:56;;;;;;;4.80;2.57;;;42.10;29.20;;;;;;5064094;28;20808;-25
2021/06/28 01:04:28;;;;;;;2.77;2.67;;;41.90;30.60;;;;;;5064132;28;20528;-26
2021/06/28 01:07:00;;;;;;;2.60;2.40;;;41.80;29.70;;;;;;5053778;28;20452;-26
2021/06/28 01:09:31;;;;;;;2.83;2.70;;;42.00;28.90;;;;;;5062914;28;20460;-26
2021/06/28 01:12:02;;;;;;;2.60;2.50;;;42.00;29.40;;;;;;5064611;28;20447;-25
2021/06/28 01:14:33;;;;;;;4.80;3.23;;;41.90;30.90;;;;;;5063829;28;20484;-30
2021/06/28 01:17:05;;;;;;;2.77;2.67;;;41.80;30.30;;;;;;5056546;28;20452;-26
2021/06/28 01:19:39;;;;;;;2.43;2.33;;;41.60;31.10;;;;;;5063231;28;20995;-27
2021/06/28 01:22:15;;;;;;;3.20;3.00;;;41.60;29.90;;;;;;5064147;28;20486;-26
2021/06/28 01:24:48;;;;;;;2.50;2.40;;;41.50;31.60;;;;;;5063142;28;20451;-26
2021/06/28 01:27:19;;;;;;;2.67;2.57;;;41.40;30.50;;;;;;5064401;28;20449;-26
2021/06/28 01:29:50;;;;;;;3.30;3.20;;;41.30;31.50;;;;;;5064318;28;20455;-27
2021/06/28 01:32:21;;;;;;;2.60;2.50;;;41.40;30.40;;;;;;5063474;28;20868;-26
2021/06/28 01:34:52;;;;;;;3.70;3.50;;;41.20;34.40;;;;;;5063139;28;20483;-31
2021/06/28 01:37:25;;;;;;;3.00;2.90;;;41.10;32.60;;;;;;5064055;28;20934;-24
2021/06/28 01:40:00;;;;;;;2.93;2.83;;;41.10;31.90;;;;;;5062838;28;20452;-29
2021/06/28 01:42:32;;;;;;;3.90;3.70;;;41.10;30.50;;;;;;5064033;28;20448;-24
2021/06/28 01:45:04;;;;;;;4.00;3.70;;;40.90;32.00;;;;;;5063236;28;20476;-26
2021/06/28 01:47:35;;;;;;;3.40;3.20;;;40.80;32.00;;;;;;5063589;28;20502;-32
2021/06/28 01:50:09;;;;;;;3.17;3.00;;;40.90;31.80;;;;;;5062916;28;20539;-28
2021/06/28 01:52:41;;;;;;;3.30;3.10;;;40.90;32.30;;;;;;5063532;28;20447;-28
2021/06/28 01:55:15;;;;;;;4.50;3.33;;;40.70;32.20;;;;;;5061562;28;20558;-25
2021/06/28 01:57:48;;;;;;;3.20;3.10;;;40.80;30.40;;;;;;5063960;28;20441;-26
2021/06/28 02:00:21;;;;;;;2.80;2.70;;;40.80;31.70;;;;;;5063114;28;20437;-30
2021/06/28 02:03:02;;;;;;;3.40;3.20;;;40.70;31.70;;;;;;5063268;28;20533;-27
2021/06/28 02:05:36;;;;;;;3.43;3.23;;;40.60;32.60;;;;;;5063168;28;20460;-26
2021/06/28 02:08:09;;;;;;;3.20;2.90;;;40.60;32.10;;;;;;5063249;28;20540;-26
2021/06/28 02:10:45;;;;;;;3.10;2.90;;;40.50;33.30;;;;;;5061891;28;20464;-27
2021/06/28 02:13:16;;;;;;;2.80;2.67;;;40.40;33.20;;;;;;5061768;28;20447;-29
2021/06/28 02:15:48;;;;;;;3.27;3.00;;;40.10;34.80;;;;;;5063408;28;20504;-24
2021/06/28 02:18:21;;;;;;;3.53;3.23;;;39.90;34.40;;;;;;5063422;28;20470;-25
2021/06/28 02:20:53;;;;;;;3.20;3.10;;;39.70;32.90;;;;;;5062253;28;20491;-27
2021/06/28 02:23:29;;;;;;;3.67;3.47;;;39.70;31.50;;;;;;5061435;28;20452;-26
2021/06/28 02:26:03;;;;;;;3.77;3.57;;;39.70;34.00;;;;;;5056751;28;20458;-26
2021/06/28 02:28:36;;;;;;;3.60;3.30;;;39.40;36.60;;;;;;5062065;28;21022;-25
2021/06/28 02:31:09;;;;;;;3.23;3.13;;;39.20;36.60;;;;;;5061867;28;20493;-25
2021/06/28 02:33:42;;;;;;;3.50;3.30;;;39.00;39.40;;;;;;5062071;28;20483;-28
2021/06/28 02:36:14;;;;;;;3.30;3.20;;;38.60;39.80;;;;;;5060301;28;20510;-29
2021/06/28 02:38:45;;;;;;;3.37;3.17;;;38.50;39.80;;;;;;5062559;28;20452;-25
2021/06/28 02:41:20;;;;;;;3.30;3.10;;;38.60;36.80;;;;;;5061455;28;20570;-24
2021/06/28 02:43:52;;;;;;;2.80;2.60;;;38.60;38.10;;;;;;5059430;28;20442;-25
2021/06/28 02:46:23;;;;;;;3.40;3.23;;;38.50;39.50;;;;;;5063720;28;20450;-27
2021/06/28 02:48:56;;;;;;;2.90;2.80;;;38.20;39.10;;;;;;5061248;28;20453;-26
2021/06/28 02:51:27;;;;;;;2.97;2.87;;;38.20;40.10;;;;;;5061414;28;20446;-26
2021/06/28 02:53:58;;;;;;;3.20;3.10;;;38.10;40.00;;;;;;5061498;28;20458;-25
2021/06/28 02:56:33;;;;;;;3.37;3.17;;;38.00;41.90;;;;;;5060672;28;20510;-29
2021/06/28 02:59:04;;;;;;;3.07;2.97;;;37.80;40.40;;;;;;5059344;28;20489;-25
2021/06/28 03:01:35;;;;;;;2.87;2.77;;;37.70;40.90;;;;;;5062816;28;20461;-25
2021/06/28 03:04:07;;;;;;;3.70;3.40;;;37.50;41.10;;;;;;5062048;28;20524;-27
2021/06/28 03:06:38;;;;;;;3.33;3.23;;;37.30;40.30;;;;;;5055053;28;20814;-29
2021/06/28 03:09:09;;;;;;;3.40;3.17;;;37.20;42.60;;;;;;5061130;28;20476;-29
2021/06/28 03:11:41;;;;;;;3.20;3.10;;;37.10;41.70;;;;;;5061457;28;20461;-26
2021/06/28 03:14:12;;;;;;;3.70;3.40;;;36.80;45.50;;;;;;5050270;28;20475;-22
2021/06/28 03:16:43;;;;;;;3.53;3.23;;;36.40;48.50;;;;;;5061873;28;20501;-27
2021/06/28 03:19:14;;;;;;;3.07;2.97;;;36.20;46.10;;;;;;5061612;28;20514;-25
2021/06/28 03:21:45;;;;;;;3.13;2.93;;;36.00;47.70;;;;;;5060489;28;20451;-24
2021/06/28 03:24:16;;;;;;;3.20;3.10;;;35.80;49.10;;;;;;5059971;28;20459;-29
2021/06/28 03:26:49;;;;;;;7.03;6.73;;;35.60;48.40;;;;;;5061945;28;20453;-25
2021/06/28 03:29:20;;;;;;;9.43;8.83;;;35.50;49.00;;;;;;5062188;28;20453;-28
2021/06/28 03:31:51;;;;;;;11.10;10.50;;;35.60;50.90;;;;;;5055690;28;20440;-30
2021/06/28 03:34:22;;;;;;;12.50;11.67;;;35.60;52.90;;;;;;5061893;28;20456;-29
2021/06/28 03:36:53;;;;;;;12.90;12.23;;;35.60;53.70;;;;;;5062287;28;20534;-26
2021/06/28 03:39:24;;;;;;;11.97;11.47;;;35.60;54.40;;;;;;5060026;28;20464;-25
2021/06/28 03:41:57;;;;;;;13.27;12.47;;;35.60;54.90;;;;;;5060916;28;20486;-24
2021/06/28 03:44:31;;;;;;;13.07;12.27;;;35.40;56.80;;;;;;5060381;28;20594;-26
2021/06/28 03:47:02;;;;;;;13.23;12.63;;;35.20;57.30;;;;;;5059981;28;20452;-26
2021/06/28 03:49:33;;;;;;;12.60;12.00;;;35.00;58.00;;;;;;5061765;28;20475;-27
2021/06/28 03:52:05;;;;;;;13.17;12.47;;;34.80;58.70;;;;;;5060820;28;20444;-26
2021/06/28 03:54:36;;;;;;;13.10;12.40;;;34.70;59.50;;;;;;5060147;28;20472;-26
2021/06/28 03:57:09;;;;;;;13.90;13.10;;;34.50;61.10;;;;;;5060823;28;20480;-27
2021/06/28 03:59:40;;;;;;;14.80;13.90;;;34.30;62.10;;;;;;5060374;28;20467;-23
2021/06/28 04:02:13;;;;;;;13.80;13.20;;;34.30;61.90;;;;;;5062060;28;20443;-26
2021/06/28 04:04:48;;;;;;;15.47;14.60;;;34.20;62.80;;;;;;5060528;28;20508;-25
2021/06/28 04:07:19;;;;;;;13.90;13.13;;;34.30;62.50;;;;;;5058039;28;20451;-25
2021/06/28 04:09:50;;;;;;;14.10;13.40;;;34.20;62.90;;;;;;5049167;28;20455;-24
2021/06/28 04:12:23;;;;;;;15.03;14.10;;;34.20;64.70;;;;;;5053221;28;20462;-23
2021/06/28 04:14:54;;;;;;;14.27;13.57;;;34.10;63.70;;;;;;5059239;28;20474;-27
2021/06/28 04:17:25;;;;;;;14.43;13.63;;;33.90;65.00;;;;;;5061721;28;21132;-23
2021/06/28 04:19:56;;;;;;;13.50;12.80;;;33.70;65.80;;;;;;5064345;28;20542;-25
2021/06/28 04:22:27;;;;;;;13.80;13.20;;;33.60;65.80;;;;;;5065478;28;20474;-24
2021/06/28 04:24:58;;;;;;;13.50;12.80;;;33.40;66.60;;;;;;5063848;28;20455;-25
2021/06/28 04:27:30;;;;;;;14.10;13.30;;;33.30;64.80;;;;;;5061567;28;20460;-25
2021/06/28 04:30:01;;;;;;;14.50;13.70;;;33.40;66.70;;;;;;5064698;28;20511;-26
2021/06/28 04:32:34;;;;;;;13.90;13.20;;;33.30;69.20;;;;;;5057758;28;20538;-24
2021/06/28 04:35:07;;;;;;;14.50;13.60;;;33.20;68.50;;;;;;5062874;28;20450;-28
2021/06/28 04:37:38;;;;;;;13.37;12.67;;;33.20;66.80;;;;;;5064929;28;20486;-24
2021/06/28 04:40:12;;;;;;;14.43;13.57;;;33.10;68.00;;;;;;5062854;28;20447;-24
2021/06/28 04:42:47;;;;;;;13.30;12.60;;;33.00;69.40;;;;;;5064564;28;20456;-26
2021/06/28 04:45:19;;;;;;;14.53;13.50;;;33.00;67.30;;;;;;5062981;28;20443;-27
2021/06/28 04:47:50;;;;;;;13.57;12.87;;;33.00;68.10;;;;;;5064297;28;20828;-27
2021/06/28 04:50:24;;;;;;;13.03;12.23;;;32.90;69.10;;;;;;5063658;28;20471;-25
2021/06/28 04:52:56;;;;;;;13.73;13.03;;;32.60;70.90;;;;;;5063418;28;20527;-26
2021/06/28 04:55:28;;;;;;;13.87;13.07;;;32.50;70.90;;;;;;5058586;28;20575;-25
2021/06/28 04:58:00;;;;;;;14.03;13.20;;;32.30;72.20;;;;;;5064763;28;20517;-26
2021/06/28 05:00:31;;;;;;;15.80;14.80;;;32.20;72.10;;;;;;5063710;28;20462;-27
2021/06/28 05:03:03;;;;;;;13.93;13.23;;;32.20;71.40;;;;;;5064392;28;20477;-23
2021/06/28 05:05:34;;;;;;;13.97;13.10;;;32.20;71.00;;;;;;5052020;28;20527;-26
2021/06/28 05:08:06;;;;;;;14.10;13.40;;;32.20;72.40;;;;;;5062003;28;20481;-26
2021/06/28 05:10:37;;;;;;;14.03;13.27;;;32.20;71.90;;;;;;5062707;28;20462;-24
2021/06/28 05:13:11;;;;;;;14.50;13.63;;;32.20;70.90;;;;;;5063424;28;20842;-24
2021/06/28 05:15:42;;;;;;;14.30;13.50;;;32.20;72.40;;;;;;5063687;28;20451;-24
2021/06/28 05:18:13;;;;;;;15.00;13.80;;;32.10;74.20;;;;;;5063890;28;20559;-27
2021/06/28 05:20:44;;;;;;;14.07;13.37;;;31.90;72.70;;;;;;5063604;28;20457;-28
2021/06/28 05:23:15;;;;;;;14.13;13.43;;;31.80;74.30;;;;;;5062844;28;20476;-27
2021/06/28 05:25:46;;;;;;;14.50;13.60;;;31.70;73.70;;;;;;5061869;28;20450;-27
2021/06/28 05:28:24;;;;;;;13.87;13.17;;;31.60;74.10;;;;;;5061835;28;20452;-27
2021/06/28 05:30:55;;;;;;;14.10;13.30;;;31.50;75.60;;;;;;5061058;28;20498;-25
2021/06/28 05:33:26;;;;;;;15.23;14.43;;;31.40;74.70;;;;;;5064201;28;20441;-26
2021/06/28 05:35:57;;;;;;;14.73;13.83;;;31.40;74.10;;;;;;5064290;28;21070;-25
2021/06/28 05:38:28;;;;;;;14.30;13.50;;;31.60;73.90;;;;;;5063617;28;20510;-24
2021/06/28 05:40:59;;;;;;;14.57;13.43;;;31.60;73.70;;;;;;5061694;28;20480;-27
2021/06/28 05:43:39;;;;;;;14.37;13.57;;;31.60;73.60;;;;;;5062911;28;20449;-24
2021/06/28 05:46:10;;;;;;;14.37;13.73;;;31.60;76.40;;;;;;5047971;28;20768;-26
2021/06/28 05:48:41;;;;;;;14.23;13.47;;;31.40;76.00;;;;;;5058451;28;20905;-25
2021/06/28 05:51:31;;;;;;;14.27;13.47;;;31.30;76.10;;;;;;5063229;28;20451;-26
2021/06/28 05:54:06;;;;;;;14.00;13.30;;;31.10;76.40;;;;;;5061780;28;20449;-23
2021/06/28 05:56:37;;;;;;;14.17;13.47;;;31.00;77.10;;;;;;5063086;28;20451;-23
2021/06/28 05:59:10;;;;;;;14.80;13.90;;;30.90;76.90;;;;;;5063179;28;20461;-26
2021/06/28 06:01:41;;;;;;;14.60;13.90;;;30.80;77.80;;;;;;5063365;28;20436;-24
2021/06/28 06:04:14;;;;;;;14.63;13.93;;;30.70;77.80;;;;;;5061505;28;20528;-24
2021/06/28 06:06:45;;;;;;;14.90;14.10;;;30.80;76.70;;;;;;5063258;28;20450;-24
2021/06/28 06:09:16;;;;;;;14.50;13.70;;;30.90;77.40;;;;;;5061022;28;20449;-24
2021/06/28 06:11:47;;;;;;;14.63;13.80;;;30.90;76.80;;;;;;5050003;28;20464;-26
2021/06/28 06:14:20;;;;;;;14.53;13.70;;;30.80;76.80;;;;;;5061777;28;20466;-22
2021/06/28 06:16:53;;;;;;;14.73;13.93;;;30.80;76.30;;;;;;5061866;28;20442;-25
2021/06/28 06:19:24;;;;;;;13.83;13.13;;;30.80;78.60;;;;;;5062796;28;20510;-26
2021/06/28 06:22:00;;;;;;;14.77;13.97;;;30.60;78.60;;;;;;5063338;28;20615;-24
2021/06/28 06:24:31;;;;;;;14.03;13.23;;;30.50;79.70;;;;;;5061146;28;20454;-25
2021/06/28 06:27:02;;;;;;;14.60;13.80;;;30.40;79.30;;;;;;5062189;28;20491;-23
2021/06/28 06:29:38;;;;;;;15.43;14.60;;;30.30;80.70;;;;;;5062148;28;20473;-27
2021/06/28 06:32:09;;;;;;;15.53;14.70;;;30.30;79.80;;;;;;5063477;28;20466;-23
2021/06/28 06:34:40;;;;;;;15.53;14.63;;;30.20;79.40;;;;;;5052154;28;20457;-25
2021/06/28 06:37:11;;;;;;;14.30;13.57;;;30.20;79.60;;;;;;5059947;28;20462;-23
2021/06/28 06:39:43;;;;;;;15.97;15.07;;;30.30;80.00;;;;;;5060386;28;20485;-27
2021/06/28 06:42:19;;;;;;;15.27;14.47;;;30.30;81.50;;;;;;5063215;28;20496;-25
2021/06/28 06:44:57;;;;;;;14.50;13.80;;;30.20;81.00;;;;;;5062272;28;20456;-24
2021/06/28 06:47:28;;;;;;;15.27;14.37;;;30.20;80.80;;;;;;5062082;28;20457;-22
2021/06/28 06:50:00;;;;;;;14.93;14.13;;;30.00;82.60;;;;;;5061214;28;20486;-24
2021/06/28 06:52:33;;;;;;;15.27;14.47;;;29.90;84.20;;;;;;5062232;28;20765;-25
2021/06/28 06:55:11;;;;;;;14.90;13.97;;;29.80;84.20;;;;;;5060642;28;20447;-24
2021/06/28 06:57:42;;;;;;;15.33;14.53;;;29.70;85.40;;;;;;5062535;28;20548;-23
2021/06/28 07:00:18;;;;;;;16.10;15.20;;;29.60;84.80;;;;;;5062248;28;20464;-27
2021/06/28 07:02:52;;;;;;;15.17;14.37;;;29.50;86.80;;;;;;5059144;28;20526;-25
2021/06/28 07:05:23;;;;;;;15.37;14.50;;;29.40;88.00;;;;;;5061313;28;20559;-24
2021/06/28 07:07:55;;;;;;;15.83;14.93;;;29.30;88.70;;;;;;5062548;28;20447;-24
2021/06/28 07:10:33;;;;;;;15.43;14.53;;;29.30;88.80;;;;;;5061170;28;20481;-25
2021/06/28 07:13:05;;;;;;;15.20;14.30;;;29.20;89.10;;;;;;5062866;28;20519;-26
2021/06/28 07:15:38;;;;;;;16.13;15.23;;;29.20;89.30;;;;;;5061152;28;20460;-24
2021/06/28 07:18:09;;;;;;;15.90;15.10;;;29.20;90.10;;;;;;5061498;28;20495;-23
2021/06/28 07:20:42;;;;;;;16.87;15.80;;;29.10;89.40;;;;;;5061928;28;20578;-24
2021/06/28 07:23:16;;;;;;;17.00;15.90;;;29.20;88.70;;;;;;5057354;28;21221;-25
2021/06/28 07:25:47;;;;;;;15.67;14.77;;;29.30;89.30;;;;;;5060557;28;20456;-22
2021/06/28 07:28:19;;;;;;;15.90;15.00;;;29.30;89.20;;;;;;5062304;28;20451;-24
2021/06/28 07:30:56;;;;;;;16.00;15.20;;;29.40;88.20;;;;;;5061908;28;20477;-23
2021/06/28 07:33:38;;;;;;;15.13;14.27;;;29.30;90.40;;;;;;5056352;28;20450;-23
2021/06/28 07:36:10;;;;;;;15.57;14.67;;;29.20;90.50;;;;;;5068846;28;20453;-24
2021/06/28 07:38:42;;;;;;;15.60;14.70;;;29.10;90.70;;;;;;5062376;28;20476;-24
2021/06/28 07:41:13;;;;;;;15.83;15.03;;;29.00;91.10;;;;;;5060932;28;20451;-23
2021/06/28 07:43:44;;;;;;;17.33;16.13;;;28.90;91.20;;;;;;5062529;28;20509;-26
2021/06/28 07:46:17;;;;;;;15.87;14.87;;;28.80;91.00;;;;;;5055829;28;20584;-23
2021/06/28 07:48:49;;;;;;;15.73;14.93;;;28.80;91.60;;;;;;5062091;28;20470;-27
2021/06/28 07:51:21;;;;;;;16.50;15.50;;;28.70;92.10;;;;;;5061365;28;20512;-27
2021/06/28 07:53:52;;;;;;;16.40;15.50;;;28.60;92.40;;;;;;5066239;28;20447;-27
2021/06/28 07:56:23;;;;;;;16.27;15.37;;;28.60;91.90;;;;;;5064181;28;20446;-26
2021/06/28 07:58:58;;;;;;;16.40;15.50;;;28.50;92.40;;;;;;5065848;28;20483;-24
2021/06/28 08:01:33;;;;;;;16.27;15.37;;;28.50;93.10;;;;;;5065555;28;20503;-26
2021/06/28 08:04:04;;;;;;;17.03;16.13;;;28.40;92.40;;;;;;5065478;28;20470;-25
2021/06/28 08:06:37;;;;;;;15.63;14.73;;;28.40;93.10;;;;;;5066080;28;20458;-26
2021/06/28 08:09:10;;;;;;;15.87;15.07;;;28.40;92.60;;;;;;5065085;28;20487;-26
2021/06/28 08:11:44;;;;;;;15.60;14.80;;;28.40;92.70;;;;;;5066480;28;20516;-24
2021/06/28 08:14:17;;;;;;;16.23;15.23;;;28.50;92.30;;;;;;5065824;28;20481;-23
2021/06/28 08:16:49;;;;;;;16.40;15.40;;;28.60;93.70;;;;;;5065986;28;20460;-24
2021/06/28 08:19:20;;;;;;;14.87;14.07;;;28.50;93.60;;;;;;5064910;28;20483;-23
2021/06/28 08:21:54;;;;;;;15.37;14.33;;;28.50;93.00;;;;;;5064652;28;20456;-25
2021/06/28 08:24:25;;;;;;;15.63;14.73;;;28.50;93.50;;;;;;5063939;28;20452;-25
2021/06/28 08:26:59;;;;;;;15.40;14.47;;;28.50;92.20;;;;;;5066105;28;20525;-24
2021/06/28 08:29:30;;;;;;;16.20;15.10;;;28.40;94.00;;;;;;5065156;28;20487;-23
2021/06/28 08:32:05;;;;;;;16.20;15.30;;;28.40;93.70;;;;;;5065363;28;20485;-23
2021/06/28 08:34:36;;;;;;;15.50;14.67;;;28.30;92.60;;;;;;5063994;28;20451;-25
2021/06/28 08:37:17;;;;;;;15.27;14.47;;;28.20;92.80;;;;;;5061218;28;20926;-24
2021/06/28 08:39:48;;;;;;;15.30;14.40;;;28.20;93.10;;;;;;5063036;28;20863;-27
2021/06/28 08:42:24;;;;;;;14.73;14.00;;;28.10;93.20;;;;;;5065800;28;20447;-23
2021/06/28 08:44:56;;;;;;;16.20;14.90;;;28.00;93.90;;;;;;5064451;28;20527;-28
2021/06/28 08:47:29;;;;;;;15.43;14.60;;;27.90;95.20;;;;;;5065024;28;20448;-24
2021/06/28 08:50:04;;;;;;;15.63;14.73;;;27.90;94.20;;;;;;5064324;28;20470;-22
2021/06/28 08:52:38;;;;;;;15.40;14.60;;;27.80;94.10;;;;;;5064315;28;20475;-25
2021/06/28 08:55:14;;;;;;;16.07;15.17;;;27.80;95.50;;;;;;5063240;28;21112;-23
2021/06/28 08:57:45;;;;;;;15.57;14.67;;;27.80;95.40;;;;;;5059289;28;20446;-23
2021/06/28 09:00:17;;;;;;;15.90;15.00;;;27.60;96.20;;;;;;5064228;28;20491;-22
2021/06/28 09:02:56;;;;;;;15.47;14.67;;;27.60;96.40;;;;;;5064116;28;21292;-27
2021/06/28 09:05:50;;;;;;;15.33;14.53;;;27.50;97.20;;;;;;5063641;28;20446;-23
2021/06/28 09:08:23;;;;;;;15.10;14.23;;;27.40;96.40;;;;;;5064419;28;20454;-24
2021/06/28 09:10:54;;;;;;;15.30;14.40;;;27.50;96.00;;;;;;5063209;28;20479;-25
2021/06/28 09:13:38;;;;;;;15.10;14.20;;;27.60;96.50;;;;;;5063292;28;20473;-25
2021/06/28 09:16:18;;;;;;;16.50;15.50;;;27.60;96.00;;;;;;5063487;28;20478;-27
2021/06/28 09:18:56;;;;;;;16.20;15.30;;;27.70;97.10;;;;;;5064051;28;20519;-24
2021/06/28 09:21:34;;;;;;;15.10;14.30;;;27.60;96.20;;;;;;5050696;28;20582;-24
2021/06/28 09:24:09;;;;;;;15.20;14.40;;;27.50;97.10;;;;;;5063481;28;20460;-25
2021/06/28 09:26:47;;;;;;;15.93;14.93;;;27.40;98.30;;;;;;5060921;28;20546;-23
2021/06/28 09:29:34;;;;;;;16.20;15.20;;;27.30;98.70;;;;;;5059681;28;20531;-23
2021/06/28 09:32:19;;;;;;;15.23;14.43;;;27.20;99.40;;;;;;5064383;28;20459;-23
2021/06/28 09:34:55;;;;;;;15.17;14.37;;;27.00;99.90;;;;;;5064010;28;20499;-25
2021/06/28 09:37:30;;;;;;;16.17;15.27;;;26.90;99.90;;;;;;5079909;28;20932;-24
2021/06/28 09:40:04;;;;;;;16.77;15.70;;;26.80;99.90;;;;;;5062168;28;20529;-26
2021/06/28 09:42:47;;;;;;;16.20;15.30;;;26.90;99.90;;;;;;5063760;28;20556;-23
2021/06/28 09:45:22;;;;;;;16.33;15.43;;;26.90;99.90;;;;;;5062426;28;20478;-24
2021/06/28 09:47:55;;;;;;;16.90;15.90;;;26.90;99.90;;;;;;5055063;28;20526;-27
2021/06/28 09:50:28;;;;;;;16.20;15.33;;;26.90;99.90;;;;;;5063206;28;20658;-27
2021/06/28 09:53:08;;;;;;;17.50;16.50;;;26.90;99.90;;;;;;5063785;28;20444;-24
2021/06/28 09:55:42;;;;;;;17.10;16.10;;;26.90;99.90;;;;;;5062487;28;20462;-25
2021/06/28 09:58:22;;;;;;;16.30;15.27;;;26.70;99.90;;;;;;5063827;28;20489;-22
2021/06/28 10:01:00;;;;;;;16.23;15.33;;;26.60;99.90;;;;;;5062978;28;20519;-25
2021/06/28 10:03:35;;;;;;;16.93;16.00;;;26.50;99.90;;;;;;5063315;28;20523;-23
2021/06/28 10:06:14;;;;;;;16.63;15.67;;;26.40;99.90;;;;;;5062151;28;20550;-24
2021/06/28 10:08:48;;;;;;;16.70;15.77;;;26.30;99.90;;;;;;5063186;28;20490;-23
2021/06/28 10:11:20;;;;;;;16.90;15.90;;;26.30;99.90;;;;;;5062082;28;20460;-24
2021/06/28 10:13:54;;;;;;;17.50;16.50;;;26.20;99.90;;;;;;5056167;28;20455;-24
2021/06/28 10:16:29;;;;;;;16.33;15.53;;;26.20;99.90;;;;;;5059236;28;20455;-23
2021/06/28 10:19:04;;;;;;;17.20;16.10;;;26.10;99.90;;;;;;5062869;28;20460;-24
2021/06/28 10:21:40;;;;;;;17.93;16.83;;;26.00;99.90;;;;;;5062636;28;20449;-24
2021/06/28 10:24:13;;;;;;;17.87;16.77;;;26.00;99.90;;;;;;5058389;28;20464;-24
2021/06/28 10:26:52;;;;;;;17.23;16.23;;;25.90;99.90;;;;;;5059631;28;20467;-23
2021/06/28 10:29:24;;;;;;;16.70;15.80;;;25.80;99.90;;;;;;5062619;28;20500;-25
2021/06/28 10:31:56;;;;;;;17.20;16.30;;;25.80;99.90;;;;;;5063180;28;20453;-21
2021/06/28 10:34:27;;;;;;;17.17;16.27;;;25.70;99.90;;;;;;5061367;28;20445;-24
2021/06/28 10:37:03;;;;;;;18.33;17.23;;;25.60;99.90;;;;;;5062960;28;20801;-23
2021/06/28 10:39:34;;;;;;;17.23;16.33;;;25.50;99.90;;;;;;5061272;28;20529;-24
2021/06/28 10:42:11;;;;;;;17.90;16.93;;;25.50;99.90;;;;;;5062606;28;20528;-26
2021/06/28 10:44:50;;;;;;;17.53;16.43;;;25.60;99.90;;;;;;5052775;28;20424;-23
2021/06/28 10:47:24;;;;;;;17.90;16.60;;;25.70;99.90;;;;;;5063672;28;20444;-22
2021/06/28 10:49:56;;;;;;;17.53;16.53;;;25.80;99.90;;;;;;5062240;28;20484;-24
2021/06/28 10:52:53;;;;;;;18.73;17.63;;;25.90;99.90;;;;;;5062759;28;20464;-24
2021/06/28 10:55:43;;;;;;;17.40;16.40;;;25.90;99.90;;;;;;5059917;28;20506;-25
2021/06/28 10:58:29;;;;;;;16.63;15.63;;;25.80;99.90;;;;;;5054512;28;20453;-26
2021/06/28 11:01:10;;;;;;;18.50;17.40;;;25.70;99.90;;;;;;5062159;28;20524;-24
2021/06/28 11:03:43;;;;;;;18.00;17.00;;;25.50;99.90;;;;;;5062294;28;20498;-25
2021/06/28 11:06:19;;;;;;;18.83;17.53;;;25.50;99.90;;;;;;5062051;28;20441;-25
2021/06/28 11:09:04;;;;;;;19.57;18.37;;;25.40;99.90;;;;;;5062904;28;20444;-22
2021/06/28 11:11:59;;;;;;;18.23;17.23;;;25.40;99.90;;;;;;5062497;28;20456;-25
2021/06/28 11:14:48;;;;;;;19.70;18.60;;;25.40;99.90;;;;;;5058094;28;20499;-22
2021/06/28 11:17:25;;;;;;;20.70;19.40;;;25.40;99.90;;;;;;5061308;28;20459;-22
2021/06/28 11:20:02;;;;;;;20.97;19.67;;;25.40;99.90;;;;;;5061537;28;20483;-25
2021/06/28 11:22:39;;;;;;;19.97;18.70;;;25.40;99.90;;;;;;5061678;28;20542;-26
2021/06/28 11:25:23;;;;;;;19.77;18.67;;;25.40;99.90;;;;;;5059967;28;20452;-24
2021/06/28 11:28:28;;;;;;;20.20;19.10;;;25.40;99.90;;;;;;5064651;28;20452;-24
2021/06/28 11:31:02;;;;;;;19.43;18.33;;;25.30;99.90;;;;;;5006341;28;20458;-25
2021/06/28 11:33:42;;;;;;;21.17;19.90;;;25.40;99.90;;;;;;5021578;28;20462;-22
2021/06/28 11:36:37;;;;;;;20.73;19.40;;;25.50;99.90;;;;;;5015293;28;20585;-24
2021/06/28 11:39:26;;;;;;;21.60;20.30;;;25.50;99.90;;;;;;5017507;28;20494;-23
2021/06/28 11:42:22;;;;;;;21.70;20.40;;;25.50;99.90;;;;;;5004720;28;20825;-22
2021/06/28 11:45:00;;;;;;;20.47;19.37;;;25.40;99.90;;;;;;5003339;28;20447;-26
2021/06/28 11:50:58;;;;;;;20.70;19.50;;;25.30;99.90;;;;;;4991071;28;20505;-26
2021/06/28 11:53:29;;;;;;;22.87;21.53;;;25.20;99.90;;;;;;5009047;28;20457;-23
2021/06/28 11:56:18;;;;;;;21.00;19.77;;;25.10;99.90;;;;;;4995925;28;20459;-28
2021/06/28 11:59:11;;;;;;;23.67;22.33;;;25.10;99.90;;;;;;5004441;28;20874;-28
2021/06/28 12:01:45;;;;;;;22.77;21.37;;;25.00;99.90;;;;;;5026382;28;21035;-23
2021/06/28 12:04:19;;;;;;;22.47;21.00;;;25.00;99.90;;;;;;5062216;28;20881;-24
2021/06/28 12:06:57;;;;;;;24.00;22.53;;;25.00;99.90;;;;;;5049789;28;20437;-23
2021/06/28 12:09:29;;;;;;;23.33;22.03;;;25.00;99.90;;;;;;5063621;28;20448;-23
2021/06/28 12:12:02;;;;;;;23.97;22.60;;;24.90;99.90;;;;;;5065299;28;20456;-24
2021/06/28 12:14:44;;;;;;;24.20;22.60;;;24.90;99.90;;;;;;5058795;28;20471;-21
2021/06/28 12:17:17;;;;;;;22.37;21.07;;;24.90;99.90;;;;;;5065809;28;20502;-22
2021/06/28 12:19:52;;;;;;;22.83;21.33;;;24.90;99.90;;;;;;5065413;28;20452;-22
2021/06/28 12:22:28;;;;;;;22.10;20.70;;;24.90;99.90;;;;;;5064485;28;20444;-23
2021/06/28 12:25:02;;;;;;;22.23;20.83;;;24.90;99.90;;;;;;5063391;28;20601;-23
2021/06/28 12:27:38;;;;;;;22.43;21.00;;;24.80;99.90;;;;;;5065786;28;20440;-27
2021/06/28 12:30:15;;;;;;;22.47;21.17;;;24.80;99.90;;;;;;5064869;28;20509;-23
2021/06/28 12:32:52;;;;;;;23.20;21.80;;;24.80;99.90;;;;;;5060208;28;20452;-22
2021/06/28 12:35:28;;;;;;;22.13;20.77;;;24.80;99.90;;;;;;5061694;28;20934;-24
2021/06/28 12:38:01;;;;;;;22.60;21.20;;;24.80;99.90;;;;;;5064578;28;20478;-23
2021/06/28 12:40:35;;;;;;;23.13;21.60;;;24.70;99.90;;;;;;5063368;28;20527;-24
2021/06/28 12:43:15;;;;;;;23.20;21.80;;;24.70;99.90;;;;;;5064657;28;20475;-22
2021/06/28 12:45:49;;;;;;;21.17;19.73;;;24.70;99.90;;;;;;5063539;28;20455;-23
2021/06/28 12:48:22;;;;;;;20.70;19.40;;;24.80;99.90;;;;;;5059518;28;20457;-23
2021/06/28 12:50:55;;;;;;;21.80;20.20;;;24.80;99.90;;;;;;5063888;28;20500;-23
2021/06/28 12:53:27;;;;;;;21.27;19.97;;;24.80;99.90;;;;;;5064394;28;20476;-25
2021/06/28 12:56:11;;;;;;;21.90;20.50;;;24.80;99.90;;;;;;5052283;28;20459;-23
2021/06/28 12:58:44;;;;;;;21.23;19.93;;;24.80;99.90;;;;;;5061548;28;20448;-23
2021/06/28 13:01:34;;;;;;;21.20;19.90;;;24.80;99.90;;;;;;5065095;28;20475;-26
2021/06/28 13:04:27;;;;;;;20.77;19.47;;;24.80;99.90;;;;;;5064053;28;20440;-26
2021/06/28 13:06:58;;;;;;;19.83;18.73;;;24.90;99.90;;;;;;5064193;28;20427;-24
2021/06/28 13:09:31;;;;;;;20.63;19.30;;;24.90;99.90;;;;;;5063344;28;20427;-23
2021/06/28 13:12:06;;;;;;;19.40;18.30;;;25.00;99.90;;;;;;5064126;28;20456;-23